createdAt,value
2022-10-12T00:00:31.231Z,98.02
2022-10-12T00:01:35.639Z,98.03
2022-10-12T00:02:39.887Z,98.11
2022-10-12T00:03:44.096Z,98.10
2022-10-12T00:04:48.435Z,98.09
2022-10-12T00:05:52.752Z,98.13
2022-10-12T00:06:57.070Z,98.15
2022-10-12T00:08:01.466Z,98.17
2022-10-12T00:09:05.720Z,98.20
2022-10-12T00:10:10.056Z,98.21
2022-10-12T00:11:14.244Z,98.20
2022-10-12T00:12:18.581Z,98.19
2022-10-12T00:13:22.904Z,98.17
2022-10-12T00:14:27.202Z,98.18
2022-10-12T00:15:31.500Z,98.19
2022-10-12T00:16:35.720Z,98.18
2022-10-12T00:17:40.431Z,98.18
2022-10-12T00:18:44.371Z,98.16
2022-10-12T00:19:48.638Z,98.13
2022-10-12T00:20:52.951Z,98.10
2022-10-12T00:21:57.152Z,98.09
2022-10-12T00:23:01.478Z,98.14
2022-10-12T00:24:05.682Z,98.24
2022-10-12T00:25:09.994Z,98.33
2022-10-12T00:26:14.287Z,98.35
2022-10-12T00:27:18.676Z,98.38
2022-10-12T00:28:22.893Z,98.39
2022-10-12T00:29:27.189Z,98.42
2022-10-12T00:30:31.466Z,98.51
2022-10-12T00:31:35.690Z,98.61
2022-10-12T00:32:40.053Z,98.66
2022-10-12T00:33:44.314Z,98.74
2022-10-12T00:34:48.669Z,98.87
2022-10-12T00:35:52.945Z,98.98
2022-10-12T00:36:57.244Z,99.08
2022-10-12T00:38:01.547Z,99.13
2022-10-12T00:39:05.828Z,99.23
2022-10-12T00:40:09.927Z,99.39
2022-10-12T00:41:14.308Z,99.46
2022-10-12T00:42:18.707Z,99.54
2022-10-12T00:43:22.983Z,99.63
2022-10-12T00:44:27.165Z,99.68
2022-10-12T00:45:31.512Z,99.64
2022-10-12T00:46:35.788Z,99.62
2022-10-12T00:47:40.439Z,99.70
2022-10-12T00:48:44.344Z,99.71
2022-10-12T00:49:48.760Z,99.69
2022-10-12T00:50:53.056Z,99.66
2022-10-12T00:51:57.258Z,99.65
2022-10-12T00:53:01.547Z,99.75
2022-10-12T00:54:05.875Z,99.74
2022-10-12T00:55:10.082Z,99.67
2022-10-12T00:56:14.542Z,99.51
2022-10-12T00:57:18.804Z,99.41
2022-10-12T00:58:23.061Z,99.41
2022-10-12T00:59:27.458Z,99.36
2022-10-12T01:00:31.598Z,99.36
2022-10-12T01:01:35.882Z,99.25
2022-10-12T01:02:40.100Z,99.29
2022-10-12T01:03:44.455Z,99.24
2022-10-12T01:04:48.739Z,99.27
2022-10-12T01:05:53.055Z,99.28
2022-10-12T01:06:57.351Z,99.28
2022-10-12T01:08:01.577Z,99.28
2022-10-12T01:09:05.917Z,99.22
2022-10-12T01:10:10.147Z,98.99
2022-10-12T01:11:14.401Z,98.60
2022-10-12T01:12:18.711Z,98.33
2022-10-12T01:13:23.010Z,98.34
2022-10-12T01:14:27.301Z,98.31
2022-10-12T01:15:31.669Z,98.35
2022-10-12T01:16:35.864Z,98.46
2022-10-12T01:17:40.362Z,98.59
2022-10-12T01:18:44.330Z,98.80
2022-10-12T01:19:48.597Z,99.06
2022-10-12T01:20:52.913Z,99.25
2022-10-12T01:21:57.194Z,99.40
2022-10-12T01:23:01.441Z,99.50
2022-10-12T01:24:05.661Z,99.51
2022-10-12T01:25:09.989Z,99.48
2022-10-12T01:26:14.248Z,99.46
2022-10-12T01:27:18.531Z,99.43
2022-10-12T01:28:22.838Z,99.37
2022-10-12T01:29:27.081Z,99.36
2022-10-12T01:30:31.225Z,99.33
2022-10-12T01:31:35.605Z,99.29
2022-10-12T01:32:39.877Z,99.24
2022-10-12T01:33:44.189Z,99.19
2022-10-12T01:34:48.392Z,99.13
2022-10-12T01:35:52.706Z,99.02
2022-10-12T01:36:56.946Z,98.90
2022-10-12T01:38:01.250Z,98.94
2022-10-12T01:39:05.663Z,98.96
2022-10-12T01:40:09.875Z,98.94
2022-10-12T01:41:14.164Z,98.88
2022-10-12T01:42:18.458Z,98.79
2022-10-12T01:43:22.737Z,98.72
2022-10-12T01:44:26.951Z,98.77
2022-10-12T01:45:31.295Z,98.77
2022-10-12T01:46:35.566Z,98.76
2022-10-12T01:47:40.242Z,98.69
2022-10-12T01:48:44.046Z,98.62
2022-10-12T01:49:48.276Z,98.54
2022-10-12T01:50:52.622Z,98.50
2022-10-12T01:51:56.861Z,98.50
2022-10-12T01:53:01.171Z,98.53
2022-10-12T01:54:05.447Z,98.55
2022-10-12T01:55:09.760Z,98.60
2022-10-12T01:56:14.019Z,98.65
2022-10-12T01:57:18.231Z,98.66
2022-10-12T01:58:22.432Z,98.66
2022-10-12T01:59:26.879Z,98.63
2022-10-12T02:00:31.200Z,98.59
2022-10-12T02:01:35.504Z,98.59
2022-10-12T02:02:39.697Z,98.58
2022-10-12T02:03:43.860Z,98.59
2022-10-12T02:04:48.241Z,98.59
2022-10-12T02:05:52.535Z,98.63
2022-10-12T02:06:56.808Z,98.63
2022-10-12T02:08:01.110Z,98.63
2022-10-12T02:09:05.389Z,98.73
2022-10-12T02:10:09.640Z,98.65
2022-10-12T02:11:14.012Z,98.59
2022-10-12T02:12:18.227Z,98.51
2022-10-12T02:13:22.511Z,98.46
2022-10-12T02:14:26.800Z,98.46
2022-10-12T02:15:31.083Z,98.46
2022-10-12T02:16:35.366Z,98.43
2022-10-12T02:17:39.793Z,98.41
2022-10-12T02:18:43.839Z,98.43
2022-10-12T02:19:48.158Z,98.50
2022-10-12T02:20:52.341Z,98.50
2022-10-12T02:21:56.679Z,98.47
2022-10-12T02:23:00.899Z,98.43
2022-10-12T02:24:05.203Z,98.47
2022-10-12T02:25:09.477Z,98.58
2022-10-12T02:26:13.758Z,98.70
2022-10-12T02:27:18.057Z,98.81
2022-10-12T02:28:22.296Z,98.79
2022-10-12T02:29:26.543Z,98.74
2022-10-12T02:30:30.812Z,98.70
2022-10-12T02:31:34.943Z,98.64
2022-10-12T02:32:39.275Z,98.61
2022-10-12T02:33:43.553Z,98.60
2022-10-12T02:34:47.823Z,98.61
2022-10-12T02:35:52.071Z,98.63
2022-10-12T02:36:56.337Z,98.64
2022-10-12T02:38:00.622Z,98.64
2022-10-12T02:39:10.845Z,98.61
2022-10-12T02:40:13.723Z,98.58
2022-10-12T02:41:17.966Z,98.55
2022-10-12T02:42:22.241Z,98.50
2022-10-12T02:43:26.431Z,98.43
2022-10-12T02:44:30.735Z,98.48
2022-10-12T02:45:41.042Z,98.48
2022-10-12T02:46:43.900Z,98.49
2022-10-12T02:47:48.060Z,98.42
2022-10-12T02:48:52.295Z,97.98
2022-10-12T02:49:56.597Z,97.60
2022-10-12T02:51:00.888Z,97.39
2022-10-12T02:52:05.026Z,97.36
2022-10-12T02:53:09.330Z,97.46
2022-10-12T02:54:13.601Z,97.61
2022-10-12T02:55:17.877Z,97.78
2022-10-12T02:56:21.966Z,97.97
2022-10-12T02:57:26.410Z,98.18
2022-10-12T02:58:30.659Z,98.22
2022-10-12T02:59:34.950Z,98.07
2022-10-12T03:00:39.105Z,97.94
2022-10-12T03:01:43.473Z,97.85
2022-10-12T03:02:47.668Z,97.86
2022-10-12T03:03:51.786Z,97.92
2022-10-12T03:04:56.063Z,97.97
2022-10-12T03:06:00.404Z,97.99
2022-10-12T03:07:04.576Z,97.99
2022-10-12T03:08:08.890Z,98.03
2022-10-12T03:09:13.011Z,97.98
2022-10-12T03:10:17.361Z,97.95
2022-10-12T03:11:21.625Z,97.94
2022-10-12T03:12:25.705Z,97.91
2022-10-12T03:13:30.086Z,97.86
2022-10-12T03:14:34.143Z,97.82
2022-10-12T03:15:38.509Z,97.82
2022-10-12T03:16:42.599Z,97.86
2022-10-12T03:17:46.921Z,97.92
2022-10-12T03:18:51.211Z,97.99
2022-10-12T03:19:55.446Z,98.03
2022-10-12T03:20:59.683Z,98.05
2022-10-12T03:22:03.967Z,98.06
2022-10-12T03:23:08.202Z,98.08
2022-10-12T03:24:12.457Z,98.09
2022-10-12T03:25:16.641Z,98.08
2022-10-12T03:26:20.856Z,98.08
2022-10-12T03:27:25.292Z,98.05
2022-10-12T03:28:29.567Z,98.07
2022-10-12T03:29:33.907Z,98.11
2022-10-12T03:30:38.007Z,98.15
2022-10-12T03:31:42.313Z,98.16
2022-10-12T03:32:46.634Z,98.23
2022-10-12T03:33:50.881Z,98.33
2022-10-12T03:34:55.153Z,98.31
2022-10-12T03:35:59.322Z,98.19
2022-10-12T03:37:03.628Z,97.99
2022-10-12T03:38:07.803Z,97.92
2022-10-12T03:39:11.954Z,97.89
2022-10-12T03:40:16.320Z,97.92
2022-10-12T03:41:20.643Z,97.98
2022-10-12T03:42:24.897Z,98.08
2022-10-12T03:43:29.089Z,98.17
2022-10-12T03:44:33.376Z,98.28
2022-10-12T03:45:37.692Z,98.34
2022-10-12T03:46:41.858Z,98.56
2022-10-12T03:47:46.032Z,98.71
2022-10-12T03:48:50.199Z,98.55
2022-10-12T03:49:54.576Z,98.58
2022-10-12T03:50:58.776Z,98.52
2022-10-12T03:52:03.028Z,98.46
2022-10-12T03:53:07.360Z,98.42
2022-10-12T03:54:11.683Z,98.38
2022-10-12T03:55:15.938Z,98.33
2022-10-12T03:56:20.057Z,98.32
2022-10-12T03:57:24.425Z,98.26
2022-10-12T03:58:28.588Z,98.19
2022-10-12T03:59:32.897Z,98.18
2022-10-12T04:00:37.159Z,98.18
2022-10-12T04:01:41.539Z,98.23
2022-10-12T04:02:45.619Z,98.29
2022-10-12T04:03:49.806Z,98.33
2022-10-12T04:04:54.248Z,98.36
2022-10-12T04:05:58.372Z,98.37
2022-10-12T04:07:02.604Z,98.36
2022-10-12T04:08:06.814Z,98.34
2022-10-12T04:09:11.042Z,98.31
2022-10-12T04:10:15.227Z,98.30
2022-10-12T04:11:19.415Z,98.31
2022-10-12T04:12:23.849Z,98.28
2022-10-12T04:13:28.080Z,98.26
2022-10-12T04:14:32.358Z,98.23
2022-10-12T04:15:36.533Z,98.24
2022-10-12T04:16:40.773Z,98.29
2022-10-12T04:17:45.131Z,98.33
2022-10-12T04:18:49.294Z,98.34
2022-10-12T04:19:53.511Z,98.37
2022-10-12T04:20:57.814Z,98.38
2022-10-12T04:22:01.892Z,98.52
2022-10-12T04:23:06.295Z,98.62
2022-10-12T04:24:10.486Z,98.78
2022-10-12T04:25:14.820Z,98.85
2022-10-12T04:26:18.908Z,99.04
2022-10-12T04:27:23.176Z,98.96
2022-10-12T04:28:27.562Z,98.86
2022-10-12T04:29:31.713Z,98.80
2022-10-12T04:30:35.941Z,98.73
2022-10-12T04:31:40.171Z,98.75
2022-10-12T04:32:44.420Z,98.66
2022-10-12T04:33:48.726Z,98.50
2022-10-12T04:34:52.869Z,98.40
2022-10-12T04:35:57.170Z,98.36
2022-10-12T04:37:01.404Z,98.21
2022-10-12T04:38:05.716Z,98.20
2022-10-12T04:39:09.997Z,98.21
2022-10-12T04:40:14.249Z,98.23
2022-10-12T04:41:18.484Z,98.26
2022-10-12T04:42:22.596Z,98.38
2022-10-12T04:43:26.935Z,98.44
2022-10-12T04:44:32.346Z,98.55
2022-10-12T04:45:35.327Z,98.69
2022-10-12T04:46:39.442Z,98.74
2022-10-12T04:47:43.807Z,98.92
2022-10-12T04:48:47.968Z,98.97
2022-10-12T04:49:52.294Z,99.05
2022-10-12T04:50:56.457Z,99.16
2022-10-12T04:52:00.727Z,99.30
2022-10-12T04:53:04.993Z,99.48
2022-10-12T04:54:09.239Z,99.62
2022-10-12T04:55:13.613Z,99.75
2022-10-12T04:56:17.836Z,99.86
2022-10-12T04:57:21.994Z,99.99
2022-10-12T04:58:26.260Z,100.00
2022-10-12T04:59:30.562Z,100.00
2022-10-12T05:00:34.817Z,100.00
2022-10-12T05:01:39.364Z,100.00
2022-10-12T05:02:43.375Z,100.00
2022-10-12T05:03:47.467Z,100.00
2022-10-12T05:04:51.741Z,100.00
2022-10-12T05:05:55.878Z,100.00
2022-10-12T05:07:00.221Z,100.00
2022-10-12T05:08:07.495Z,100.00
2022-10-12T05:09:14.456Z,100.00
2022-10-12T05:10:14.909Z,100.00
2022-10-12T05:11:19.090Z,100.00
2022-10-12T05:12:23.346Z,100.00
2022-10-12T05:13:27.815Z,100.00
2022-10-12T05:14:35.057Z,100.00
2022-10-12T05:15:36.260Z,100.00
2022-10-12T05:16:41.365Z,100.00
2022-10-12T05:17:45.332Z,100.00
2022-10-12T05:18:49.419Z,100.00
2022-10-12T05:19:53.921Z,100.00
2022-10-12T05:20:58.242Z,100.00
2022-10-12T05:22:02.438Z,100.00
2022-10-12T05:23:06.622Z,100.00
2022-10-12T05:24:11.041Z,100.00
2022-10-12T05:25:15.322Z,100.00
2022-10-12T05:26:19.497Z,100.00
2022-10-12T05:27:23.713Z,100.00
2022-10-12T05:28:27.885Z,100.00
2022-10-12T05:29:32.341Z,100.00
2022-10-12T05:30:36.544Z,100.00
2022-10-12T05:31:40.662Z,100.00
2022-10-12T05:32:44.996Z,100.00
2022-10-12T05:33:49.270Z,100.00
2022-10-12T05:34:53.453Z,100.00
2022-10-12T05:35:57.851Z,100.00
2022-10-12T05:37:02.124Z,100.00
2022-10-12T05:38:06.371Z,100.00
2022-10-12T05:39:10.413Z,100.00
2022-10-12T05:40:14.797Z,100.00
2022-10-12T05:41:19.075Z,100.00
2022-10-12T05:42:23.238Z,100.00
2022-10-12T05:43:27.463Z,100.00
2022-10-12T05:44:31.683Z,100.00
2022-10-12T05:45:36.029Z,100.00
2022-10-12T05:46:40.227Z,100.00
2022-10-12T05:47:44.579Z,100.00
2022-10-12T05:48:48.689Z,100.00
2022-10-12T05:49:53.137Z,100.00
2022-10-12T05:50:57.165Z,100.00
2022-10-12T05:52:01.537Z,100.00
2022-10-12T05:53:05.862Z,100.00
2022-10-12T05:54:10.088Z,100.00
2022-10-12T05:55:14.378Z,100.00
2022-10-12T05:56:18.668Z,100.00
2022-10-12T05:57:22.743Z,100.00
2022-10-12T05:58:27.097Z,100.00
2022-10-12T05:59:31.331Z,100.00
2022-10-12T06:00:35.588Z,100.00
2022-10-12T06:01:39.907Z,100.00
2022-10-12T06:02:44.130Z,100.00
2022-10-12T06:03:48.295Z,100.00
2022-10-12T06:04:52.665Z,100.00
2022-10-12T06:05:56.971Z,100.00
2022-10-12T06:07:01.250Z,100.00
2022-10-12T06:08:05.429Z,100.00
2022-10-12T06:09:09.797Z,100.00
2022-10-12T06:10:13.951Z,100.00
2022-10-12T06:11:18.110Z,100.00
2022-10-12T06:12:22.523Z,100.00
2022-10-12T06:13:26.556Z,100.00
2022-10-12T06:14:30.923Z,100.00
2022-10-12T06:15:35.154Z,100.00
2022-10-12T06:16:39.480Z,100.00
2022-10-12T06:17:43.735Z,100.00
2022-10-12T06:18:48.024Z,100.00
2022-10-12T06:19:52.401Z,100.00
2022-10-12T06:22:00.660Z,100.00
2022-10-12T06:23:05.039Z,100.00
2022-10-12T06:24:09.411Z,100.00
2022-10-12T06:25:13.554Z,100.00
2022-10-12T06:26:17.764Z,100.00
2022-10-12T06:27:22.166Z,100.00
2022-10-12T06:28:26.350Z,100.00
2022-10-12T06:29:30.704Z,100.00
2022-10-12T06:30:34.931Z,100.00
2022-10-12T06:31:39.332Z,100.00
2022-10-12T06:32:43.652Z,100.00
2022-10-12T06:33:47.877Z,100.00
2022-10-12T06:34:52.130Z,100.00
2022-10-12T06:35:56.432Z,100.00
2022-10-12T06:37:02.007Z,100.00
2022-10-12T06:38:04.934Z,100.00
2022-10-12T06:39:09.229Z,100.00
2022-10-12T06:40:13.538Z,100.00
2022-10-12T06:41:17.938Z,100.00
2022-10-12T06:42:22.229Z,100.00
2022-10-12T06:43:26.505Z,100.00
2022-10-12T06:44:30.748Z,100.00
2022-10-12T06:45:35.008Z,100.00
2022-10-12T06:46:39.340Z,100.00
2022-10-12T06:47:43.573Z,100.00
2022-10-12T06:48:47.798Z,100.00
2022-10-12T06:49:51.874Z,100.00
2022-10-12T06:50:56.281Z,100.00
2022-10-12T06:52:00.464Z,100.00
2022-10-12T06:53:04.886Z,100.00
2022-10-12T06:54:09.020Z,100.00
2022-10-12T06:55:13.412Z,100.00
2022-10-12T06:56:17.746Z,100.00
2022-10-12T06:57:22.011Z,100.00
2022-10-12T06:58:26.371Z,100.00
2022-10-12T06:59:30.566Z,100.00
2022-10-12T07:00:34.649Z,100.00
2022-10-12T07:01:39.115Z,100.00
2022-10-12T07:02:43.315Z,100.00
2022-10-12T07:03:47.701Z,100.00
2022-10-12T07:04:52.014Z,100.00
2022-10-12T07:05:56.257Z,100.00
2022-10-12T07:07:00.445Z,100.00
2022-10-12T07:08:04.797Z,100.00
2022-10-12T07:09:09.086Z,100.00
2022-10-12T07:10:13.169Z,100.00
2022-10-12T07:11:17.655Z,100.00
2022-10-12T07:12:21.709Z,100.00
2022-10-12T07:13:26.006Z,100.00
2022-10-12T07:14:30.308Z,100.00
2022-10-12T07:15:34.464Z,100.00
2022-10-12T07:16:38.583Z,100.00
2022-10-12T07:17:42.807Z,100.00
2022-10-12T07:18:47.126Z,100.00
2022-10-12T07:19:51.434Z,100.00
2022-10-12T07:20:55.729Z,100.00
2022-10-12T07:21:59.987Z,100.00
2022-10-12T07:23:04.277Z,100.00
2022-10-12T07:24:08.452Z,100.00
2022-10-12T07:25:12.837Z,100.00
2022-10-12T07:26:17.125Z,100.00
2022-10-12T07:27:21.343Z,100.00
2022-10-12T07:28:25.569Z,100.00
2022-10-12T07:29:29.877Z,100.00
2022-10-12T07:30:34.166Z,100.00
2022-10-12T07:31:38.486Z,100.00
2022-10-12T07:32:42.795Z,100.00
2022-10-12T07:33:46.976Z,100.00
2022-10-12T07:34:51.398Z,100.00
2022-10-12T07:36:14.210Z,100.00
2022-10-12T07:37:00.099Z,100.00
2022-10-12T07:38:04.100Z,100.00
2022-10-12T07:39:08.514Z,100.00
2022-10-12T07:40:12.621Z,100.00
2022-10-12T07:41:16.954Z,100.00
2022-10-12T07:42:21.179Z,100.00
2022-10-12T07:43:25.536Z,100.00
2022-10-12T07:44:29.901Z,100.00
2022-10-12T07:45:34.138Z,100.00
2022-10-12T07:46:38.432Z,100.00
2022-10-12T07:47:42.722Z,100.00
2022-10-12T07:48:50.198Z,100.00
2022-10-12T07:49:51.416Z,100.00
2022-10-12T07:50:55.693Z,100.00
2022-10-12T07:51:59.990Z,100.00
2022-10-12T07:53:04.299Z,100.00
2022-10-12T07:54:08.684Z,100.00
2022-10-12T07:55:12.755Z,100.00
2022-10-12T07:56:16.981Z,100.00
2022-10-12T07:57:21.378Z,100.00
2022-10-12T07:58:25.762Z,100.00
2022-10-12T07:59:29.999Z,100.00
2022-10-12T08:00:34.379Z,100.00
2022-10-12T08:01:38.892Z,100.00
2022-10-12T08:02:43.090Z,100.00
2022-10-12T08:03:47.458Z,100.00
2022-10-12T08:04:51.813Z,100.00
2022-10-12T08:05:56.054Z,100.00
2022-10-12T08:07:00.405Z,100.00
2022-10-12T08:08:04.788Z,100.00
2022-10-12T08:09:09.075Z,100.00
2022-10-12T08:10:13.367Z,100.00
2022-10-12T08:11:17.689Z,100.00
2022-10-12T08:12:21.962Z,100.00
2022-10-12T08:13:26.301Z,100.00
2022-10-12T08:14:30.590Z,100.00
2022-10-12T08:15:34.938Z,100.00
2022-10-12T08:16:39.239Z,100.00
2022-10-12T08:17:43.615Z,100.00
2022-10-12T08:18:47.876Z,100.00
2022-10-12T08:19:52.192Z,100.00
2022-10-12T08:20:56.576Z,100.00
2022-10-12T08:22:00.819Z,100.00
2022-10-12T08:23:05.161Z,100.00
2022-10-12T08:24:09.452Z,100.00
2022-10-12T08:25:13.780Z,100.00
2022-10-12T08:26:18.151Z,100.00
2022-10-12T08:27:22.508Z,100.00
2022-10-12T08:28:26.845Z,100.00
2022-10-12T08:29:31.054Z,100.00
2022-10-12T08:30:35.396Z,100.00
2022-10-12T08:31:39.619Z,100.00
2022-10-12T08:32:43.974Z,100.00
2022-10-12T08:33:48.208Z,100.00
2022-10-12T08:34:52.637Z,100.00
2022-10-12T08:35:56.991Z,100.00
2022-10-12T08:37:01.285Z,100.00
2022-10-12T08:38:05.566Z,100.00
2022-10-12T08:39:09.871Z,100.00
2022-10-12T08:40:14.202Z,100.00
2022-10-12T08:41:18.406Z,100.00
2022-10-12T08:42:22.751Z,100.00
2022-10-12T08:43:27.067Z,100.00
2022-10-12T08:44:31.219Z,100.00
2022-10-12T08:45:35.684Z,100.00
2022-10-12T08:46:39.974Z,100.00
2022-10-12T08:47:44.291Z,100.00
2022-10-12T08:48:48.622Z,100.00
2022-10-12T08:49:53.050Z,100.00
2022-10-12T08:52:01.432Z,100.00
2022-10-12T08:53:05.779Z,100.00
2022-10-12T08:54:10.159Z,100.00
2022-10-12T08:55:14.434Z,100.00
2022-10-12T08:56:18.739Z,100.00
2022-10-12T08:57:23.041Z,100.00
2022-10-12T08:58:27.448Z,100.00
2022-10-12T08:59:31.737Z,100.00
2022-10-12T09:00:36.124Z,100.00
2022-10-12T09:01:40.319Z,100.00
2022-10-12T09:02:44.613Z,100.00
2022-10-12T09:03:48.961Z,100.00
2022-10-12T09:04:53.170Z,100.00
2022-10-12T09:05:57.452Z,100.00
2022-10-12T09:07:01.690Z,100.00
2022-10-12T09:08:06.148Z,100.00
2022-10-12T09:09:10.434Z,100.00
2022-10-12T09:10:28.899Z,100.00
2022-10-12T09:11:32.176Z,100.00
2022-10-12T09:12:39.734Z,100.00
2022-10-12T09:13:42.872Z,100.00
2022-10-12T09:14:47.119Z,100.00
2022-10-12T09:15:51.451Z,100.00
2022-10-12T09:16:55.799Z,100.00
2022-10-12T09:18:00.204Z,100.00
2022-10-12T09:19:04.588Z,100.00
2022-10-12T09:20:08.851Z,100.00
2022-10-12T09:21:13.224Z,100.00
2022-10-12T09:22:17.478Z,100.00
2022-10-12T09:23:21.905Z,100.00
2022-10-12T09:24:26.222Z,100.00
2022-10-12T09:25:30.532Z,100.00
2022-10-12T09:26:34.830Z,100.00
2022-10-12T09:27:43.011Z,100.00
2022-10-12T09:28:43.475Z,100.00
2022-10-12T09:29:47.726Z,100.00
2022-10-12T09:30:54.848Z,100.00
2022-10-12T09:31:58.178Z,100.00
2022-10-12T09:33:02.410Z,100.00
2022-10-12T09:34:06.705Z,100.00
2022-10-12T09:35:10.970Z,100.00
2022-10-12T09:36:15.240Z,100.00
2022-10-12T09:37:19.621Z,100.00
2022-10-12T09:38:23.826Z,100.00
2022-10-12T09:39:29.228Z,100.00
2022-10-12T09:40:32.476Z,100.00
2022-10-12T09:41:36.679Z,100.00
2022-10-12T09:42:40.960Z,100.00
2022-10-12T09:43:45.235Z,100.00
2022-10-12T09:44:49.494Z,100.00
2022-10-12T09:45:53.765Z,100.00
2022-10-12T09:46:58.067Z,100.00
2022-10-12T09:48:02.319Z,100.00
2022-10-12T09:49:06.586Z,100.00
2022-10-12T09:50:10.835Z,100.00
2022-10-12T09:51:15.197Z,100.00
2022-10-12T09:52:19.460Z,100.00
2022-10-12T09:53:23.799Z,100.00
2022-10-12T09:54:28.051Z,100.00
2022-10-12T09:55:32.410Z,100.00
2022-10-12T09:56:36.674Z,100.00
2022-10-12T09:57:40.935Z,100.00
2022-10-12T09:58:45.227Z,100.00
2022-10-12T09:59:49.484Z,100.00
2022-10-12T10:00:53.773Z,100.00
2022-10-12T10:02:01.126Z,100.00
2022-10-12T10:03:04.460Z,100.00
2022-10-12T10:04:08.737Z,100.00
2022-10-12T10:05:13.034Z,100.00
2022-10-12T10:06:17.388Z,100.00
2022-10-12T10:07:21.630Z,100.00
2022-10-12T10:08:26.066Z,100.00
2022-10-12T10:09:30.368Z,100.00
2022-10-12T10:10:34.586Z,100.00
2022-10-12T10:11:38.860Z,100.00
2022-10-12T10:12:43.139Z,100.00
2022-10-12T10:13:47.415Z,100.00
2022-10-12T10:14:51.655Z,100.00
2022-10-12T10:15:55.960Z,100.00
2022-10-12T10:17:00.235Z,100.00
2022-10-12T10:18:04.518Z,100.00
2022-10-12T10:19:08.885Z,100.00
2022-10-12T10:20:13.227Z,100.00
2022-10-12T10:21:17.491Z,100.00
2022-10-12T10:22:21.746Z,100.00
2022-10-12T10:23:26.055Z,100.00
2022-10-12T10:24:30.383Z,100.00
2022-10-12T10:25:34.611Z,100.00
2022-10-12T10:26:39.006Z,100.00
2022-10-12T10:27:43.243Z,100.00
2022-10-12T10:28:47.550Z,100.00
2022-10-12T10:30:04.692Z,100.00
2022-10-12T10:30:56.090Z,100.00
2022-10-12T10:32:00.403Z,100.00
2022-10-12T10:33:04.686Z,100.00
2022-10-12T10:34:08.923Z,100.00
2022-10-12T10:35:13.286Z,100.00
2022-10-12T10:36:17.612Z,100.00
2022-10-12T10:37:21.847Z,100.00
2022-10-12T10:38:26.100Z,100.00
2022-10-12T10:39:30.467Z,100.00
2022-10-12T10:40:34.709Z,100.00
2022-10-12T10:41:39.047Z,100.00
2022-10-12T10:42:43.360Z,100.00
2022-10-12T10:43:47.614Z,100.00
2022-10-12T10:44:51.901Z,100.00
2022-10-12T10:45:56.327Z,100.00
2022-10-12T10:47:00.677Z,100.00
2022-10-12T10:48:04.897Z,100.00
2022-10-12T10:49:09.186Z,100.00
2022-10-12T10:50:13.520Z,100.00
2022-10-12T10:51:17.815Z,100.00
2022-10-12T10:52:22.059Z,100.00
2022-10-12T10:53:26.365Z,100.00
2022-10-12T10:54:30.704Z,100.00
2022-10-12T10:55:34.967Z,100.00
2022-10-12T10:56:39.297Z,100.00
2022-10-12T10:57:43.677Z,100.00
2022-10-12T10:58:47.928Z,100.00
2022-10-12T10:59:52.286Z,100.00
2022-10-12T11:00:56.560Z,100.00
2022-10-12T11:02:01.004Z,100.00
2022-10-12T11:03:05.192Z,100.00
2022-10-12T11:04:09.423Z,100.00
2022-10-12T11:05:13.998Z,100.00
2022-10-12T11:06:18.055Z,100.00
2022-10-12T11:07:22.337Z,100.00
2022-10-12T11:08:26.803Z,100.00
2022-10-12T11:09:31.012Z,100.00
2022-10-12T11:10:35.411Z,100.00
2022-10-12T11:11:39.723Z,100.00
2022-10-12T11:12:44.136Z,100.00
2022-10-12T11:13:48.415Z,99.75
2022-10-12T11:14:52.657Z,99.64
2022-10-12T11:15:56.997Z,99.58
2022-10-12T11:17:01.266Z,99.41
2022-10-12T11:18:05.651Z,99.16
2022-10-12T11:19:09.903Z,99.24
2022-10-12T11:20:18.743Z,98.98
2022-10-12T11:21:18.417Z,98.78
2022-10-12T11:22:22.883Z,98.52
2022-10-12T11:23:27.154Z,98.47
2022-10-12T11:24:31.390Z,98.53
2022-10-12T11:25:35.677Z,98.39
2022-10-12T11:26:40.027Z,98.08
2022-10-12T11:27:44.367Z,98.05
2022-10-12T11:28:48.740Z,98.13
2022-10-12T11:30:02.916Z,97.77
2022-10-12T11:30:57.206Z,97.95
2022-10-12T11:32:01.580Z,97.84
2022-10-12T11:33:05.788Z,97.91
2022-10-12T11:34:13.415Z,97.97
2022-10-12T11:35:14.327Z,97.95
2022-10-12T11:36:18.634Z,98.00
2022-10-12T11:37:22.938Z,97.69
2022-10-12T11:38:27.155Z,97.70
2022-10-12T11:39:31.555Z,97.59
2022-10-12T11:41:02.571Z,97.57
2022-10-12T11:41:52.526Z,97.37
2022-10-12T11:42:46.505Z,97.33
2022-10-12T11:43:50.901Z,97.18
2022-10-12T11:44:55.100Z,97.00
2022-10-12T11:45:59.433Z,97.00
2022-10-12T11:47:03.732Z,97.04
2022-10-12T11:48:08.084Z,96.77
2022-10-12T11:49:12.362Z,96.49
2022-10-12T11:50:16.609Z,96.50
2022-10-12T11:51:21.029Z,96.48
2022-10-12T11:52:28.958Z,95.76
2022-10-12T11:53:29.588Z,95.45
2022-10-12T11:54:33.850Z,95.56
2022-10-12T11:55:38.207Z,95.78
2022-10-12T11:56:42.625Z,95.64
2022-10-12T11:57:46.925Z,95.64
2022-10-12T11:59:06.770Z,95.53
2022-10-12T11:59:55.598Z,95.46
2022-10-12T12:00:59.830Z,95.35
2022-10-12T12:02:04.189Z,95.17
2022-10-12T12:03:08.581Z,95.25
2022-10-12T12:04:40.058Z,95.44
2022-10-12T12:05:17.358Z,95.29
2022-10-12T12:06:21.341Z,95.37
2022-10-12T12:07:25.651Z,95.36
2022-10-12T12:08:29.954Z,95.30
2022-10-12T12:09:34.258Z,94.89
2022-10-12T12:10:38.556Z,94.73
2022-10-12T12:11:42.820Z,94.61
2022-10-12T12:12:47.231Z,94.75
2022-10-12T12:13:51.413Z,94.82
2022-10-12T12:14:55.744Z,94.27
2022-10-12T12:16:00.164Z,94.25
2022-10-12T12:17:04.449Z,93.91
2022-10-12T12:18:08.730Z,93.88
2022-10-12T12:19:13.065Z,93.88
2022-10-12T12:20:17.335Z,93.62
2022-10-12T12:21:21.689Z,93.56
2022-10-12T12:22:25.940Z,92.85
2022-10-12T12:23:30.229Z,92.32
2022-10-12T12:24:34.535Z,92.64
2022-10-12T12:25:38.846Z,92.91
2022-10-12T12:26:43.187Z,93.07
2022-10-12T12:27:47.490Z,93.00
2022-10-12T12:28:54.863Z,92.70
2022-10-12T12:29:58.152Z,92.92
2022-10-12T12:31:02.463Z,93.25
2022-10-12T12:32:06.836Z,93.86
2022-10-12T12:33:11.221Z,93.64
2022-10-12T12:34:15.564Z,93.89
2022-10-12T12:35:19.845Z,93.83
2022-10-12T12:36:24.129Z,93.75
2022-10-12T12:37:28.479Z,93.63
2022-10-12T12:38:32.800Z,92.93
2022-10-12T12:39:37.269Z,91.42
2022-10-12T12:40:41.680Z,91.62
2022-10-12T12:41:51.989Z,91.80
2022-10-12T12:42:50.210Z,88.50
2022-10-12T12:43:54.668Z,88.06
2022-10-12T12:44:59.066Z,86.98
2022-10-12T12:46:03.328Z,87.17
2022-10-12T12:47:32.648Z,88.02
2022-10-12T12:48:12.038Z,88.33
2022-10-12T12:49:16.323Z,87.41
2022-10-12T12:50:20.659Z,87.95
2022-10-12T12:51:25.006Z,84.46
2022-10-12T12:52:29.318Z,84.78
2022-10-12T12:53:33.628Z,84.90
2022-10-12T12:54:37.978Z,85.42
2022-10-12T12:55:42.386Z,84.17
2022-10-12T12:56:46.791Z,85.41
2022-10-12T12:57:51.060Z,85.09
2022-10-12T12:58:55.386Z,83.00
2022-10-12T12:59:59.826Z,84.25
2022-10-12T13:01:04.093Z,84.45
2022-10-12T13:02:08.505Z,84.20
2022-10-12T13:03:12.795Z,84.63
2022-10-12T13:04:17.202Z,80.11
2022-10-12T13:05:21.351Z,79.59
2022-10-12T13:06:25.703Z,78.25
2022-10-12T13:07:30.194Z,77.73
2022-10-12T13:08:34.320Z,76.80
2022-10-12T13:09:38.597Z,76.72
2022-10-12T13:10:42.890Z,76.28
2022-10-12T13:11:47.237Z,76.58
2022-10-12T13:12:51.620Z,77.65
2022-10-12T13:13:55.843Z,78.13
2022-10-12T13:15:00.242Z,78.84
2022-10-12T13:16:04.465Z,79.97
2022-10-12T13:17:32.212Z,80.63
2022-10-12T13:18:28.348Z,80.55
2022-10-12T13:19:21.923Z,80.21
2022-10-12T13:20:21.689Z,80.77
2022-10-12T13:21:25.994Z,81.38
2022-10-12T13:22:30.606Z,80.86
2022-10-12T13:23:34.670Z,80.73
2022-10-12T13:24:38.913Z,81.75
2022-10-12T13:25:43.338Z,81.12
2022-10-12T13:26:47.707Z,80.44
2022-10-12T13:27:52.027Z,79.73
2022-10-12T13:28:56.388Z,79.69
2022-10-12T13:30:00.758Z,80.46
2022-10-12T13:31:05.023Z,80.94
2022-10-12T13:32:09.356Z,81.62
2022-10-12T13:33:13.686Z,80.10
2022-10-12T13:34:18.074Z,80.23
2022-10-12T13:35:22.301Z,81.10
2022-10-12T13:36:26.819Z,80.93
2022-10-12T13:37:31.519Z,80.54
2022-10-12T13:38:35.340Z,80.62